sensor_id;sensor_type;location;lat;lon;timestamp;temperature;humidity
24744;DHT22;12844;52.110;5.548;2023-04-25T00:02:11;18.80;52.60
24744;DHT22;12844;52.110;5.548;2023-04-25T00:04:37;18.80;52.50
24744;DHT22;12844;52.110;5.548;2023-04-25T00:07:03;18.80;52.60
24744;DHT22;12844;52.110;5.548;2023-04-25T00:09:29;18.80;52.50
24744;DHT22;12844;52.110;5.548;2023-04-25T00:11:55;18.80;52.60
24744;DHT22;12844;52.110;5.548;2023-04-25T00:14:20;18.80;52.50
24744;DHT22;12844;52.110;5.548;2023-04-25T00:16:46;18.80;52.50
24744;DHT22;12844;52.110;5.548;2023-04-25T00:19:11;18.70;52.50
24744;DHT22;12844;52.110;5.548;2023-04-25T00:21:38;18.80;52.60
24744;DHT22;12844;52.110;5.548;2023-04-25T00:24:06;18.70;52.50
24744;DHT22;12844;52.110;5.548;2023-04-25T00:26:33;18.70;53.20
24744;DHT22;12844;52.110;5.548;2023-04-25T00:28:58;18.70;52.50
24744;DHT22;12844;52.110;5.548;2023-04-25T00:31:24;18.70;52.60
24744;DHT22;12844;52.110;5.548;2023-04-25T00:33:49;18.70;52.60
24744;DHT22;12844;52.110;5.548;2023-04-25T00:36:15;18.70;52.60
24744;DHT22;12844;52.110;5.548;2023-04-25T00:38:41;18.70;52.60
24744;DHT22;12844;52.110;5.548;2023-04-25T00:41:07;18.70;52.60
24744;DHT22;12844;52.110;5.548;2023-04-25T00:43:33;18.70;52.60
24744;DHT22;12844;52.110;5.548;2023-04-25T00:46:00;18.60;52.50
24744;DHT22;12844;52.110;5.548;2023-04-25T00:48:26;18.60;52.60
24744;DHT22;12844;52.110;5.548;2023-04-25T00:50:57;18.60;52.60
24744;DHT22;12844;52.110;5.548;2023-04-25T00:53:27;18.60;52.60
24744;DHT22;12844;52.110;5.548;2023-04-25T00:55:55;18.60;52.60
24744;DHT22;12844;52.110;5.548;2023-04-25T00:58:21;18.50;52.60
24744;DHT22;12844;52.110;5.548;2023-04-25T01:00:48;18.50;52.60
24744;DHT22;12844;52.110;5.548;2023-04-25T01:03:16;18.50;52.60
24744;DHT22;12844;52.110;5.548;2023-04-25T01:05:43;18.50;52.60
24744;DHT22;12844;52.110;5.548;2023-04-25T01:08:08;18.50;52.60
24744;DHT22;12844;52.110;5.548;2023-04-25T01:10:34;18.50;52.70
24744;DHT22;12844;52.110;5.548;2023-04-25T01:12:59;18.50;52.80
24744;DHT22;12844;52.110;5.548;2023-04-25T01:15:25;18.50;52.80
24744;DHT22;12844;52.110;5.548;2023-04-25T01:17:51;18.50;52.90
24744;DHT22;12844;52.110;5.548;2023-04-25T01:20:16;18.40;53.00
24744;DHT22;12844;52.110;5.548;2023-04-25T01:22:42;18.40;53.00
24744;DHT22;12844;52.110;5.548;2023-04-25T01:25:08;18.40;53.00
24744;DHT22;12844;52.110;5.548;2023-04-25T01:27:36;18.40;52.90
24744;DHT22;12844;52.110;5.548;2023-04-25T01:30:02;18.40;52.80
24744;DHT22;12844;52.110;5.548;2023-04-25T01:32:28;18.40;52.70
24744;DHT22;12844;52.110;5.548;2023-04-25T01:34:54;18.40;52.70
24744;DHT22;12844;52.110;5.548;2023-04-25T01:37:20;18.40;52.60
24744;DHT22;12844;52.110;5.548;2023-04-25T01:39:45;18.40;52.60
24744;DHT22;12844;52.110;5.548;2023-04-25T01:42:13;18.40;52.60
24744;DHT22;12844;52.110;5.548;2023-04-25T01:44:38;18.30;52.50
24744;DHT22;12844;52.110;5.548;2023-04-25T01:47:04;18.30;52.50
24744;DHT22;12844;52.110;5.548;2023-04-25T06:01:27;17.70;52.20
24744;DHT22;12844;52.110;5.548;2023-04-25T06:03:52;17.70;52.20
24744;DHT22;12844;52.110;5.548;2023-04-25T06:06:18;17.70;52.20
24744;DHT22;12844;52.110;5.548;2023-04-25T06:08:44;17.70;52.20
24744;DHT22;12844;52.110;5.548;2023-04-25T06:13:35;17.70;52.20
24744;DHT22;12844;52.110;5.548;2023-04-25T06:16:00;17.70;52.10
24744;DHT22;12844;52.110;5.548;2023-04-25T06:18:26;17.70;52.10
24744;DHT22;12844;52.110;5.548;2023-04-25T06:20:51;17.70;52.10
24744;DHT22;12844;52.110;5.548;2023-04-25T06:23:17;17.70;52.10
24744;DHT22;12844;52.110;5.548;2023-04-25T06:25:42;17.70;52.20
24744;DHT22;12844;52.110;5.548;2023-04-25T06:28:08;17.70;52.20
24744;DHT22;12844;52.110;5.548;2023-04-25T06:30:34;17.70;52.30
24744;DHT22;12844;52.110;5.548;2023-04-25T06:32:59;17.70;52.30
24744;DHT22;12844;52.110;5.548;2023-04-25T06:35:25;17.80;52.30
24744;DHT22;12844;52.110;5.548;2023-04-25T06:37:50;17.80;52.30
24744;DHT22;12844;52.110;5.548;2023-04-25T06:40:16;17.90;52.20
24744;DHT22;12844;52.110;5.548;2023-04-25T06:42:42;17.90;52.10
24744;DHT22;12844;52.110;5.548;2023-04-25T06:45:08;18.00;52.20
24744;DHT22;12844;52.110;5.548;2023-04-25T06:47:34;17.90;52.10
24744;DHT22;12844;52.110;5.548;2023-04-25T06:50:00;17.60;52.70
24744;DHT22;12844;52.110;5.548;2023-04-25T06:52:25;17.50;53.20
24744;DHT22;12844;52.110;5.548;2023-04-25T06:54:51;17.40;53.40
24744;DHT22;12844;52.110;5.548;2023-04-25T06:57:16;17.40;53.60
24744;DHT22;12844;52.110;5.548;2023-04-25T06:59:42;17.50;53.60
24744;DHT22;12844;52.110;5.548;2023-04-25T07:02:07;17.50;53.60
24744;DHT22;12844;52.110;5.548;2023-04-25T07:04:33;17.50;53.80
24744;DHT22;12844;52.110;5.548;2023-04-25T07:06:58;17.50;53.90
24744;DHT22;12844;52.110;5.548;2023-04-25T07:09:26;17.60;53.90
24744;DHT22;12844;52.110;5.548;2023-04-25T07:11:51;17.60;53.90
24744;DHT22;12844;52.110;5.548;2023-04-25T07:14:17;17.70;54.00
24744;DHT22;12844;52.110;5.548;2023-04-25T07:16:42;17.70;53.90
24744;DHT22;12844;52.110;5.548;2023-04-25T07:19:08;17.80;53.90
24744;DHT22;12844;52.110;5.548;2023-04-25T07:21:34;17.80;53.90
24744;DHT22;12844;52.110;5.548;2023-04-25T07:23:59;17.80;54.00
24744;DHT22;12844;52.110;5.548;2023-04-25T07:26:25;17.80;54.30
24744;DHT22;12844;52.110;5.548;2023-04-25T07:28:51;17.90;54.10
24744;DHT22;12844;52.110;5.548;2023-04-25T07:31:17;18.00;53.90
24744;DHT22;12844;52.110;5.548;2023-04-25T07:33:44;18.20;53.80
24744;DHT22;12844;52.110;5.548;2023-04-25T07:36:11;18.50;53.00
24744;DHT22;12844;52.110;5.548;2023-04-25T07:38:36;18.70;52.40
24744;DHT22;12844;52.110;5.548;2023-04-25T07:41:02;18.80;52.00
24744;DHT22;12844;52.110;5.548;2023-04-25T07:43:27;18.80;52.00
24744;DHT22;12844;52.110;5.548;2023-04-25T07:45:53;19.00;52.00
24744;DHT22;12844;52.110;5.548;2023-04-25T07:48:18;18.90;52.20
24744;DHT22;12844;52.110;5.548;2023-04-25T07:50:44;19.00;52.10
24744;DHT22;12844;52.110;5.548;2023-04-25T07:53:10;19.00;52.00
24744;DHT22;12844;52.110;5.548;2023-04-25T07:55:36;19.30;51.80
24744;DHT22;12844;52.110;5.548;2023-04-25T07:58:07;19.30;51.90
24744;DHT22;12844;52.110;5.548;2023-04-25T08:00:33;19.40;51.70
24744;DHT22;12844;52.110;5.548;2023-04-25T08:02:59;19.50;51.70
24744;DHT22;12844;52.110;5.548;2023-04-25T08:05:24;19.60;51.70
24744;DHT22;12844;52.110;5.548;2023-04-25T08:07:50;19.80;51.40
24744;DHT22;12844;52.110;5.548;2023-04-25T08:10:16;19.80;51.40
24744;DHT22;12844;52.110;5.548;2023-04-25T08:12:41;19.90;51.50
24744;DHT22;12844;52.110;5.548;2023-04-25T08:15:07;20.10;51.40
24744;DHT22;12844;52.110;5.548;2023-04-25T08:17:33;20.40;51.40
24744;DHT22;12844;52.110;5.548;2023-04-25T08:19:58;20.50;51.20
24744;DHT22;12844;52.110;5.548;2023-04-25T08:22:24;20.70;51.10
24744;DHT22;12844;52.110;5.548;2023-04-25T08:24:50;20.80;50.80
24744;DHT22;12844;52.110;5.548;2023-04-25T08:27:15;21.00;50.30
24744;DHT22;12844;52.110;5.548;2023-04-25T08:29:41;21.30;49.90
24744;DHT22;12844;52.110;5.548;2023-04-25T08:32:07;21.50;49.40
24744;DHT22;12844;52.110;5.548;2023-04-25T08:34:33;21.80;48.60
24744;DHT22;12844;52.110;5.548;2023-04-25T08:36:58;21.70;48.50
24744;DHT22;12844;52.110;5.548;2023-04-25T08:39:24;21.60;48.70
24744;DHT22;12844;52.110;5.548;2023-04-25T08:41:50;21.40;48.90
24744;DHT22;12844;52.110;5.548;2023-04-25T08:44:16;21.30;49.00
24744;DHT22;12844;52.110;5.548;2023-04-25T08:46:42;21.10;49.60
24744;DHT22;12844;52.110;5.548;2023-04-25T08:49:09;21.00;49.60
24744;DHT22;12844;52.110;5.548;2023-04-25T08:51:36;20.90;49.70
24744;DHT22;12844;52.110;5.548;2023-04-25T08:54:11;20.90;49.90
24744;DHT22;12844;52.110;5.548;2023-04-25T08:56:39;20.80;50.10
24744;DHT22;12844;52.110;5.548;2023-04-25T08:59:06;21.10;49.90
24744;DHT22;12844;52.110;5.548;2023-04-25T09:01:34;21.30;49.60
24744;DHT22;12844;52.110;5.548;2023-04-25T09:04:00;21.50;49.10
24744;DHT22;12844;52.110;5.548;2023-04-25T09:06:26;21.80;48.50
24744;DHT22;12844;52.110;5.548;2023-04-25T09:08:52;22.20;48.00
24744;DHT22;12844;52.110;5.548;2023-04-25T09:11:19;22.40;47.40
24744;DHT22;12844;52.110;5.548;2023-04-25T09:13:45;22.70;46.90
24744;DHT22;12844;52.110;5.548;2023-04-25T09:16:11;23.00;46.20
24744;DHT22;12844;52.110;5.548;2023-04-25T09:18:37;23.30;45.60
24744;DHT22;12844;52.110;5.548;2023-04-25T09:21:08;23.60;45.30
24744;DHT22;12844;52.110;5.548;2023-04-25T09:24:00;24.10;44.50
24744;DHT22;12844;52.110;5.548;2023-04-25T09:26:26;24.70;43.50
24744;DHT22;12844;52.110;5.548;2023-04-25T09:29:05;24.90;43.20
24744;DHT22;12844;52.110;5.548;2023-04-25T09:31:33;25.00;42.80
24744;DHT22;12844;52.110;5.548;2023-04-25T09:33:59;24.70;43.00
24744;DHT22;12844;52.110;5.548;2023-04-25T09:36:26;24.50;43.30
24744;DHT22;12844;52.110;5.548;2023-04-25T09:38:52;24.70;43.20
24744;DHT22;12844;52.110;5.548;2023-04-25T09:41:23;25.20;42.80
24744;DHT22;12844;52.110;5.548;2023-04-25T09:43:49;25.70;42.00
24744;DHT22;12844;52.110;5.548;2023-04-25T09:46:15;26.00;41.30
24744;DHT22;12844;52.110;5.548;2023-04-25T09:48:49;26.00;40.90
24744;DHT22;12844;52.110;5.548;2023-04-25T09:51:15;25.50;41.40
24744;DHT22;12844;52.110;5.548;2023-04-25T09:53:42;24.90;42.30
24744;DHT22;12844;52.110;5.548;2023-04-25T09:56:10;24.40;43.00
24744;DHT22;12844;52.110;5.548;2023-04-25T09:58:38;24.00;43.60
24744;DHT22;12844;52.110;5.548;2023-04-25T10:01:06;23.50;44.70
24744;DHT22;12844;52.110;5.548;2023-04-25T10:03:34;23.10;45.30
24744;DHT22;12844;52.110;5.548;2023-04-25T10:06:02;22.80;46.00
24744;DHT22;12844;52.110;5.548;2023-04-25T10:08:32;22.50;46.70
24744;DHT22;12844;52.110;5.548;2023-04-25T10:11:06;22.20;47.20
24744;DHT22;12844;52.110;5.548;2023-04-25T10:13:33;22.00;47.70
24744;DHT22;12844;52.110;5.548;2023-04-25T10:16:00;21.80;48.10
24744;DHT22;12844;52.110;5.548;2023-04-25T10:18:30;21.60;48.40
24744;DHT22;12844;52.110;5.548;2023-04-25T10:20:58;21.40;48.70
24744;DHT22;12844;52.110;5.548;2023-04-25T10:23:24;21.40;48.90
24744;DHT22;12844;52.110;5.548;2023-04-25T10:25:51;21.80;47.90
24744;DHT22;12844;52.110;5.548;2023-04-25T10:28:17;22.10;47.20
24744;DHT22;12844;52.110;5.548;2023-04-25T10:30:58;22.20;46.90
24744;DHT22;12844;52.110;5.548;2023-04-25T10:33:43;22.20;47.30
24744;DHT22;12844;52.110;5.548;2023-04-25T10:36:13;22.30;47.00
24744;DHT22;12844;52.110;5.548;2023-04-25T10:38:39;22.50;46.90
24744;DHT22;12844;52.110;5.548;2023-04-25T10:41:07;22.70;46.60
24744;DHT22;12844;52.110;5.548;2023-04-25T10:43:46;22.80;46.20
24744;DHT22;12844;52.110;5.548;2023-04-25T10:48:47;22.90;46.40
24744;DHT22;12844;52.110;5.548;2023-04-25T10:53:48;22.60;46.70
24744;DHT22;12844;52.110;5.548;2023-04-25T10:56:32;22.50;46.80
24744;DHT22;12844;52.110;5.548;2023-04-25T10:59:11;22.50;47.00
24744;DHT22;12844;52.110;5.548;2023-04-25T11:04:04;22.30;47.20
24744;DHT22;12844;52.110;5.548;2023-04-25T11:09:23;22.20;47.60
24744;DHT22;12844;52.110;5.548;2023-04-25T11:11:59;22.00;47.90
24744;DHT22;12844;52.110;5.548;2023-04-25T11:14:26;21.90;48.00
24744;DHT22;12844;52.110;5.548;2023-04-25T11:16:56;21.70;48.40
24744;DHT22;12844;52.110;5.548;2023-04-25T11:19:24;21.70;48.40
24744;DHT22;12844;52.110;5.548;2023-04-25T11:21:50;21.70;48.60
24744;DHT22;12844;52.110;5.548;2023-04-25T11:24:16;21.60;48.80
24744;DHT22;12844;52.110;5.548;2023-04-25T11:26:43;21.50;48.90
24744;DHT22;12844;52.110;5.548;2023-04-25T11:29:09;21.40;49.20
24744;DHT22;12844;52.110;5.548;2023-04-25T11:31:34;21.30;49.70
24744;DHT22;12844;52.110;5.548;2023-04-25T11:34:00;21.20;50.00
24744;DHT22;12844;52.110;5.548;2023-04-25T11:36:26;21.10;50.30
24744;DHT22;12844;52.110;5.548;2023-04-25T11:38:52;21.10;50.60
24744;DHT22;12844;52.110;5.548;2023-04-25T11:41:19;21.00;50.60
24744;DHT22;12844;52.110;5.548;2023-04-25T11:43:45;20.80;50.70
24744;DHT22;12844;52.110;5.548;2023-04-25T11:46:11;20.80;50.90
24744;DHT22;12844;52.110;5.548;2023-04-25T11:48:40;20.80;51.00
24744;DHT22;12844;52.110;5.548;2023-04-25T11:51:07;20.80;51.60
24744;DHT22;12844;52.110;5.548;2023-04-25T11:53:33;20.80;50.90
24744;DHT22;12844;52.110;5.548;2023-04-25T11:55:59;20.80;51.00
24744;DHT22;12844;52.110;5.548;2023-04-25T11:58:25;20.70;50.90
24744;DHT22;12844;52.110;5.548;2023-04-25T12:00:51;20.70;50.90
24744;DHT22;12844;52.110;5.548;2023-04-25T12:03:18;20.60;50.90
24744;DHT22;12844;52.110;5.548;2023-04-25T12:05:45;20.60;50.90
24744;DHT22;12844;52.110;5.548;2023-04-25T12:08:14;20.60;50.90
24744;DHT22;12844;52.110;5.548;2023-04-25T12:10:42;20.60;50.90
24744;DHT22;12844;52.110;5.548;2023-04-25T12:13:25;20.70;51.10
24744;DHT22;12844;52.110;5.548;2023-04-25T12:15:53;20.80;50.80
24744;DHT22;12844;52.110;5.548;2023-04-25T12:18:20;20.70;50.80
24744;DHT22;12844;52.110;5.548;2023-04-25T12:20:46;20.80;50.80
24744;DHT22;12844;52.110;5.548;2023-04-25T17:33:24;19.80;52.50
24744;DHT22;12844;52.110;5.548;2023-04-25T17:35:51;19.80;52.60
24744;DHT22;12844;52.110;5.548;2023-04-25T17:38:17;19.70;52.60
24744;DHT22;12844;52.110;5.548;2023-04-25T17:40:42;19.70;52.50
24744;DHT22;12844;52.110;5.548;2023-04-25T17:43:08;19.70;52.50
24744;DHT22;12844;52.110;5.548;2023-04-25T17:45:33;19.80;52.50
24744;DHT22;12844;52.110;5.548;2023-04-25T17:48:01;19.80;52.50
24744;DHT22;12844;52.110;5.548;2023-04-25T17:50:27;19.70;52.40
24744;DHT22;12844;52.110;5.548;2023-04-25T17:52:53;19.80;52.50
24744;DHT22;12844;52.110;5.548;2023-04-25T17:55:18;19.70;52.50
24744;DHT22;12844;52.110;5.548;2023-04-25T17:57:44;19.70;52.50
24744;DHT22;12844;52.110;5.548;2023-04-25T18:00:10;19.60;52.70
24744;DHT22;12844;52.110;5.548;2023-04-25T18:02:37;19.70;52.80
24744;DHT22;12844;52.110;5.548;2023-04-25T18:05:03;19.70;52.70
24744;DHT22;12844;52.110;5.548;2023-04-25T18:07:34;19.80;52.70
24744;DHT22;12844;52.110;5.548;2023-04-25T18:09:59;19.90;52.60
24744;DHT22;12844;52.110;5.548;2023-04-25T18:12:25;19.90;52.40
24744;DHT22;12844;52.110;5.548;2023-04-25T18:14:51;19.90;52.20
24744;DHT22;12844;52.110;5.548;2023-04-25T18:17:17;19.90;52.10
24744;DHT22;12844;52.110;5.548;2023-04-25T18:19:42;19.90;51.80
24744;DHT22;12844;52.110;5.548;2023-04-25T18:22:08;19.90;51.70
24744;DHT22;12844;52.110;5.548;2023-04-25T18:24:33;19.90;52.00
24744;DHT22;12844;52.110;5.548;2023-04-25T18:26:59;19.80;52.30
24744;DHT22;12844;52.110;5.548;2023-04-25T18:29:26;19.90;52.40
24744;DHT22;12844;52.110;5.548;2023-04-25T18:31:52;19.90;52.20
24744;DHT22;12844;52.110;5.548;2023-04-25T18:34:18;19.90;52.30
24744;DHT22;12844;52.110;5.548;2023-04-25T18:36:45;19.90;52.50
24744;DHT22;12844;52.110;5.548;2023-04-25T18:39:11;19.80;52.10
24744;DHT22;12844;52.110;5.548;2023-04-25T18:41:36;19.80;52.10
24744;DHT22;12844;52.110;5.548;2023-04-25T18:44:03;19.70;52.30
24744;DHT22;12844;52.110;5.548;2023-04-25T18:46:33;19.70;51.90
24744;DHT22;12844;52.110;5.548;2023-04-25T18:48:59;19.70;52.00
24744;DHT22;12844;52.110;5.548;2023-04-25T18:51:26;19.80;51.90
24744;DHT22;12844;52.110;5.548;2023-04-25T18:53:59;19.80;51.90
24744;DHT22;12844;52.110;5.548;2023-04-25T18:56:26;19.70;52.10
24744;DHT22;12844;52.110;5.548;2023-04-25T18:58:53;19.70;52.00
24744;DHT22;12844;52.110;5.548;2023-04-25T19:01:19;19.70;52.10
24744;DHT22;12844;52.110;5.548;2023-04-25T19:03:46;19.60;52.20
24744;DHT22;12844;52.110;5.548;2023-04-25T19:06:20;19.70;52.20
24744;DHT22;12844;52.110;5.548;2023-04-25T19:08:48;19.60;52.20
24744;DHT22;12844;52.110;5.548;2023-04-25T19:11:15;19.70;52.80
24744;DHT22;12844;52.110;5.548;2023-04-25T19:13:40;19.80;52.90
24744;DHT22;12844;52.110;5.548;2023-04-25T19:16:06;19.80;52.90
24744;DHT22;12844;52.110;5.548;2023-04-25T19:18:32;19.80;52.90
24744;DHT22;12844;52.110;5.548;2023-04-25T19:20:57;19.80;52.90
24744;DHT22;12844;52.110;5.548;2023-04-25T19:23:23;19.80;53.00
24744;DHT22;12844;52.110;5.548;2023-04-25T19:25:50;19.80;53.10
24744;DHT22;12844;52.110;5.548;2023-04-25T19:28:16;19.60;53.10
24744;DHT22;12844;52.110;5.548;2023-04-25T19:30:42;19.50;53.70
24744;DHT22;12844;52.110;5.548;2023-04-25T19:33:07;19.60;53.70
24744;DHT22;12844;52.110;5.548;2023-04-25T19:35:33;19.60;53.70
24744;DHT22;12844;52.110;5.548;2023-04-25T19:37:58;19.70;53.60
24744;DHT22;12844;52.110;5.548;2023-04-25T19:40:24;19.80;53.40
24744;DHT22;12844;52.110;5.548;2023-04-25T19:42:50;19.80;53.50
24744;DHT22;12844;52.110;5.548;2023-04-25T19:45:16;20.00;53.50
24744;DHT22;12844;52.110;5.548;2023-04-25T19:47:41;20.00;53.50
24744;DHT22;12844;52.110;5.548;2023-04-25T19:50:08;20.10;53.50
24744;DHT22;12844;52.110;5.548;2023-04-25T19:52:34;20.10;53.50
24744;DHT22;12844;52.110;5.548;2023-04-25T19:55:00;20.20;53.40
24744;DHT22;12844;52.110;5.548;2023-04-25T19:57:27;20.20;53.40
24744;DHT22;12844;52.110;5.548;2023-04-25T20:00:00;20.30;53.50
24744;DHT22;12844;52.110;5.548;2023-04-25T20:02:26;20.30;53.40
24744;DHT22;12844;52.110;5.548;2023-04-25T20:04:52;20.40;53.10
24744;DHT22;12844;52.110;5.548;2023-04-25T20:07:18;20.50;53.30
24744;DHT22;12844;52.110;5.548;2023-04-25T20:09:46;20.50;53.00
24744;DHT22;12844;52.110;5.548;2023-04-25T20:12:12;20.60;53.20
24744;DHT22;12844;52.110;5.548;2023-04-25T20:14:37;20.60;53.00
24744;DHT22;12844;52.110;5.548;2023-04-25T20:17:03;20.60;52.90
24744;DHT22;12844;52.110;5.548;2023-04-25T20:19:29;20.60;52.80
24744;DHT22;12844;52.110;5.548;2023-04-25T20:21:56;20.70;52.80
24744;DHT22;12844;52.110;5.548;2023-04-25T20:24:21;20.70;52.70
24744;DHT22;12844;52.110;5.548;2023-04-25T20:26:47;20.70;52.60
24744;DHT22;12844;52.110;5.548;2023-04-25T20:29:12;20.80;52.50
24744;DHT22;12844;52.110;5.548;2023-04-25T20:31:38;20.70;52.40
24744;DHT22;12844;52.110;5.548;2023-04-25T20:34:03;20.70;52.50
24744;DHT22;12844;52.110;5.548;2023-04-25T20:36:29;20.70;52.40
24744;DHT22;12844;52.110;5.548;2023-04-25T20:38:56;20.60;52.70
24744;DHT22;12844;52.110;5.548;2023-04-25T20:41:21;20.50;52.70
24744;DHT22;12844;52.110;5.548;2023-04-25T20:43:47;20.50;52.60
24744;DHT22;12844;52.110;5.548;2023-04-25T20:46:14;20.50;52.50
24744;DHT22;12844;52.110;5.548;2023-04-25T20:48:40;20.60;52.50
24744;DHT22;12844;52.110;5.548;2023-04-25T20:51:06;20.60;52.40
24744;DHT22;12844;52.110;5.548;2023-04-25T20:53:32;20.50;52.40
24744;DHT22;12844;52.110;5.548;2023-04-25T20:55:57;20.50;52.70
24744;DHT22;12844;52.110;5.548;2023-04-25T20:58:24;20.50;52.40
24744;DHT22;12844;52.110;5.548;2023-04-25T21:00:50;20.50;52.50
24744;DHT22;12844;52.110;5.548;2023-04-25T21:03:16;20.50;52.50
24744;DHT22;12844;52.110;5.548;2023-04-25T21:05:41;20.40;52.40
24744;DHT22;12844;52.110;5.548;2023-04-25T21:08:07;20.50;52.30
24744;DHT22;12844;52.110;5.548;2023-04-25T21:10:33;20.40;52.20
24744;DHT22;12844;52.110;5.548;2023-04-25T21:12:58;20.40;52.20
24744;DHT22;12844;52.110;5.548;2023-04-25T21:15:24;20.40;52.20
24744;DHT22;12844;52.110;5.548;2023-04-25T21:17:50;20.40;52.20
24744;DHT22;12844;52.110;5.548;2023-04-25T21:20:17;20.30;52.10
24744;DHT22;12844;52.110;5.548;2023-04-25T21:22:44;20.30;52.10
24744;DHT22;12844;52.110;5.548;2023-04-25T21:25:16;20.30;52.10
24744;DHT22;12844;52.110;5.548;2023-04-25T21:27:51;20.30;52.20
24744;DHT22;12844;52.110;5.548;2023-04-25T21:30:21;20.30;52.10
24744;DHT22;12844;52.110;5.548;2023-04-25T21:32:48;20.20;52.20
24744;DHT22;12844;52.110;5.548;2023-04-25T21:35:18;20.20;52.10
24744;DHT22;12844;52.110;5.548;2023-04-25T21:37:45;20.20;52.10
24744;DHT22;12844;52.110;5.548;2023-04-25T21:40:11;20.20;52.70
24744;DHT22;12844;52.110;5.548;2023-04-25T21:42:38;20.20;52.10
24744;DHT22;12844;52.110;5.548;2023-04-25T21:45:05;20.20;52.10
24744;DHT22;12844;52.110;5.548;2023-04-25T21:47:34;20.20;52.00
24744;DHT22;12844;52.110;5.548;2023-04-25T21:50:00;20.20;52.00
24744;DHT22;12844;52.110;5.548;2023-04-25T21:52:26;20.20;52.00
24744;DHT22;12844;52.110;5.548;2023-04-25T21:54:52;20.20;52.00
24744;DHT22;12844;52.110;5.548;2023-04-25T21:57:19;20.10;52.10
24744;DHT22;12844;52.110;5.548;2023-04-25T21:59:46;20.10;52.20
24744;DHT22;12844;52.110;5.548;2023-04-25T22:02:12;20.10;52.00
24744;DHT22;12844;52.110;5.548;2023-04-25T22:04:37;20.10;51.90
24744;DHT22;12844;52.110;5.548;2023-04-25T22:07:03;20.10;51.90
24744;DHT22;12844;52.110;5.548;2023-04-25T22:09:29;20.10;51.90
24744;DHT22;12844;52.110;5.548;2023-04-25T22:11:55;20.10;51.90
24744;DHT22;12844;52.110;5.548;2023-04-25T22:14:21;20.00;51.80
24744;DHT22;12844;52.110;5.548;2023-04-25T22:16:47;20.10;51.80
24744;DHT22;12844;52.110;5.548;2023-04-25T22:19:14;20.00;51.80
24744;DHT22;12844;52.110;5.548;2023-04-25T22:21:40;20.00;51.80
24744;DHT22;12844;52.110;5.548;2023-04-25T22:24:06;20.00;51.70
24744;DHT22;12844;52.110;5.548;2023-04-25T22:26:32;20.00;51.70
24744;DHT22;12844;52.110;5.548;2023-04-25T22:28:58;20.00;51.70
24744;DHT22;12844;52.110;5.548;2023-04-25T22:31:24;20.00;51.70
24744;DHT22;12844;52.110;5.548;2023-04-25T22:33:50;20.00;51.70
24744;DHT22;12844;52.110;5.548;2023-04-25T22:36:16;19.90;51.70
24744;DHT22;12844;52.110;5.548;2023-04-25T22:38:43;19.90;51.60
24744;DHT22;12844;52.110;5.548;2023-04-25T22:41:08;19.90;51.70
24744;DHT22;12844;52.110;5.548;2023-04-25T22:43:36;19.90;51.70
24744;DHT22;12844;52.110;5.548;2023-04-25T22:46:02;19.90;51.80
24744;DHT22;12844;52.110;5.548;2023-04-25T22:48:28;19.90;51.70
24744;DHT22;12844;52.110;5.548;2023-04-25T22:51:01;19.80;51.60
24744;DHT22;12844;52.110;5.548;2023-04-25T22:53:27;19.80;51.60
24744;DHT22;12844;52.110;5.548;2023-04-25T22:55:55;19.80;51.70
24744;DHT22;12844;52.110;5.548;2023-04-25T22:58:21;19.80;51.70
24744;DHT22;12844;52.110;5.548;2023-04-25T23:00:47;19.80;51.70
24744;DHT22;12844;52.110;5.548;2023-04-25T23:03:12;19.80;51.80
24744;DHT22;12844;52.110;5.548;2023-04-25T23:05:38;19.70;51.70
24744;DHT22;12844;52.110;5.548;2023-04-25T23:08:03;19.70;51.70
24744;DHT22;12844;52.110;5.548;2023-04-25T23:10:29;19.70;51.70
24744;DHT22;12844;52.110;5.548;2023-04-25T23:12:55;19.70;51.70
24744;DHT22;12844;52.110;5.548;2023-04-25T23:15:25;19.70;51.70
24744;DHT22;12844;52.110;5.548;2023-04-25T23:17:52;19.70;51.70
24744;DHT22;12844;52.110;5.548;2023-04-25T23:20:17;19.70;51.70
24744;DHT22;12844;52.110;5.548;2023-04-25T23:22:43;19.60;51.70
24744;DHT22;12844;52.110;5.548;2023-04-25T23:25:08;19.60;51.70
24744;DHT22;12844;52.110;5.548;2023-04-25T23:27:34;19.70;51.70
24744;DHT22;12844;52.110;5.548;2023-04-25T23:30:00;19.60;51.70
24744;DHT22;12844;52.110;5.548;2023-04-25T23:32:25;19.60;51.50
24744;DHT22;12844;52.110;5.548;2023-04-25T23:34:51;19.70;51.50
24744;DHT22;12844;52.110;5.548;2023-04-25T23:37:16;19.60;51.40
24744;DHT22;12844;52.110;5.548;2023-04-25T23:39:48;19.60;51.60
24744;DHT22;12844;52.110;5.548;2023-04-25T23:42:17;19.60;51.60
24744;DHT22;12844;52.110;5.548;2023-04-25T23:44:43;19.60;51.60
24744;DHT22;12844;52.110;5.548;2023-04-25T23:47:09;19.60;52.40
24744;DHT22;12844;52.110;5.548;2023-04-25T23:49:38;19.50;51.70
24744;DHT22;12844;52.110;5.548;2023-04-25T23:52:03;19.50;51.80
24744;DHT22;12844;52.110;5.548;2023-04-25T23:54:29;19.50;51.90
